sensor_id;sensor_type;location;lat;lon;timestamp;P1;durP1;ratioP1;P2;durP2;ratioP2
43626;SDS011;29217;52.586;13.442;2022-09-09T00:00:24;9.05;;;6.07;;
43626;SDS011;29217;52.586;13.442;2022-09-09T00:03:02;10.20;;;5.65;;
43626;SDS011;29217;52.586;13.442;2022-09-09T00:09:10;9.30;;;6.18;;
43626;SDS011;29217;52.586;13.442;2022-09-09T00:11:42;9.45;;;5.50;;
43626;SDS011;29217;52.586;13.442;2022-09-09T00:14:23;7.78;;;5.90;;
43626;SDS011;29217;52.586;13.442;2022-09-09T00:17:01;9.18;;;5.88;;
43626;SDS011;29217;52.586;13.442;2022-09-09T00:19:40;14.80;;;6.13;;
43626;SDS011;29217;52.586;13.442;2022-09-09T00:22:15;17.10;;;7.75;;
43626;SDS011;29217;52.586;13.442;2022-09-09T00:27:13;7.30;;;5.65;;
43626;SDS011;29217;52.586;13.442;2022-09-09T00:29:47;14.25;;;5.88;;
43626;SDS011;29217;52.586;13.442;2022-09-09T00:32:19;7.28;;;5.38;;
43626;SDS011;29217;52.586;13.442;2022-09-09T00:34:55;6.93;;;5.00;;
43626;SDS011;29217;52.586;13.442;2022-09-09T00:37:24;8.00;;;5.20;;
43626;SDS011;29217;52.586;13.442;2022-09-09T00:39:51;6.95;;;4.95;;
43626;SDS011;29217;52.586;13.442;2022-09-09T00:42:24;9.13;;;5.07;;
43626;SDS011;29217;52.586;13.442;2022-09-09T00:44:59;8.10;;;5.15;;
43626;SDS011;29217;52.586;13.442;2022-09-09T00:55:45;14.07;;;5.50;;
43626;SDS011;29217;52.586;13.442;2022-09-09T01:01:30;9.38;;;4.95;;
43626;SDS011;29217;52.586;13.442;2022-09-09T01:03:56;10.32;;;4.85;;
43626;SDS011;29217;52.586;13.442;2022-09-09T01:06:29;7.25;;;5.05;;
43626;SDS011;29217;52.586;13.442;2022-09-09T01:09:13;8.68;;;5.35;;
43626;SDS011;29217;52.586;13.442;2022-09-09T01:12:16;6.93;;;4.95;;
43626;SDS011;29217;52.586;13.442;2022-09-09T01:14:49;8.77;;;5.40;;
43626;SDS011;29217;52.586;13.442;2022-09-09T01:17:53;7.95;;;5.90;;
43626;SDS011;29217;52.586;13.442;2022-09-09T01:20:23;7.90;;;5.68;;
43626;SDS011;29217;52.586;13.442;2022-09-09T01:28:37;10.25;;;5.75;;
43626;SDS011;29217;52.586;13.442;2022-09-09T01:31:05;10.27;;;6.05;;
43626;SDS011;29217;52.586;13.442;2022-09-09T01:33:34;11.40;;;6.72;;
43626;SDS011;29217;52.586;13.442;2022-09-09T01:36:04;10.85;;;6.45;;
43626;SDS011;29217;52.586;13.442;2022-09-09T01:38:34;12.00;;;6.60;;
43626;SDS011;29217;52.586;13.442;2022-09-09T01:41:01;8.82;;;6.63;;
43626;SDS011;29217;52.586;13.442;2022-09-09T01:43:27;9.82;;;6.90;;
43626;SDS011;29217;52.586;13.442;2022-09-09T01:45:54;14.30;;;7.20;;
43626;SDS011;29217;52.586;13.442;2022-09-09T01:48:21;9.27;;;6.88;;
43626;SDS011;29217;52.586;13.442;2022-09-09T01:50:48;11.68;;;7.20;;
43626;SDS011;29217;52.586;13.442;2022-09-09T01:53:14;10.52;;;6.63;;
43626;SDS011;29217;52.586;13.442;2022-09-09T01:55:42;9.57;;;6.88;;
43626;SDS011;29217;52.586;13.442;2022-09-09T02:01:06;12.05;;;6.90;;
43626;SDS011;29217;52.586;13.442;2022-09-09T02:03:52;10.43;;;6.50;;
43626;SDS011;29217;52.586;13.442;2022-09-09T02:06:30;11.77;;;6.50;;
43626;SDS011;29217;52.586;13.442;2022-09-09T02:09:03;9.57;;;6.43;;
43626;SDS011;29217;52.586;13.442;2022-09-09T02:11:31;11.93;;;6.25;;
43626;SDS011;29217;52.586;13.442;2022-09-09T02:14:00;10.40;;;6.50;;
43626;SDS011;29217;52.586;13.442;2022-09-09T02:19:08;9.20;;;6.63;;
43626;SDS011;29217;52.586;13.442;2022-09-09T02:21:41;10.93;;;6.70;;
43626;SDS011;29217;52.586;13.442;2022-09-09T02:24:09;12.57;;;6.43;;
43626;SDS011;29217;52.586;13.442;2022-09-09T02:26:38;8.50;;;6.25;;
43626;SDS011;29217;52.586;13.442;2022-09-09T02:29:08;12.35;;;5.85;;
43626;SDS011;29217;52.586;13.442;2022-09-09T02:31:39;9.60;;;6.32;;
43626;SDS011;29217;52.586;13.442;2022-09-09T02:34:08;13.40;;;6.70;;
43626;SDS011;29217;52.586;13.442;2022-09-09T02:36:36;18.10;;;7.65;;
43626;SDS011;29217;52.586;13.442;2022-09-09T02:39:04;10.68;;;6.60;;
43626;SDS011;29217;52.586;13.442;2022-09-09T02:41:33;8.70;;;6.60;;
43626;SDS011;29217;52.586;13.442;2022-09-09T02:44:01;13.80;;;6.82;;
43626;SDS011;29217;52.586;13.442;2022-09-09T02:46:44;11.27;;;7.57;;
43626;SDS011;29217;52.586;13.442;2022-09-09T02:49:25;8.75;;;6.20;;
43626;SDS011;29217;52.586;13.442;2022-09-09T02:52:05;13.25;;;6.43;;
43626;SDS011;29217;52.586;13.442;2022-09-09T02:54:40;9.23;;;6.20;;
43626;SDS011;29217;52.586;13.442;2022-09-09T02:57:17;12.05;;;6.30;;
43626;SDS011;29217;52.586;13.442;2022-09-09T02:59:48;10.38;;;6.70;;
43626;SDS011;29217;52.586;13.442;2022-09-09T03:02:16;8.85;;;6.70;;
43626;SDS011;29217;52.586;13.442;2022-09-09T03:04:43;10.88;;;6.20;;
43626;SDS011;29217;52.586;13.442;2022-09-09T03:07:10;9.65;;;6.03;;
43626;SDS011;29217;52.586;13.442;2022-09-09T03:09:37;10.38;;;5.95;;
43626;SDS011;29217;52.586;13.442;2022-09-09T03:12:02;12.38;;;6.15;;
43626;SDS011;29217;52.586;13.442;2022-09-09T03:14:29;9.88;;;5.47;;
43626;SDS011;29217;52.586;13.442;2022-09-09T03:16:55;7.78;;;5.57;;
43626;SDS011;29217;52.586;13.442;2022-09-09T03:19:22;9.27;;;5.40;;
43626;SDS011;29217;52.586;13.442;2022-09-09T03:21:48;8.00;;;5.70;;
43626;SDS011;29217;52.586;13.442;2022-09-09T03:24:14;10.13;;;6.60;;
43626;SDS011;29217;52.586;13.442;2022-09-09T03:26:41;12.10;;;6.30;;
43626;SDS011;29217;52.586;13.442;2022-09-09T03:29:09;11.40;;;6.13;;
43626;SDS011;29217;52.586;13.442;2022-09-09T03:31:37;8.45;;;5.72;;
43626;SDS011;29217;52.586;13.442;2022-09-09T03:34:03;8.98;;;5.97;;
43626;SDS011;29217;52.586;13.442;2022-09-09T03:36:28;10.38;;;5.53;;
43626;SDS011;29217;52.586;13.442;2022-09-09T03:38:55;8.07;;;5.45;;
43626;SDS011;29217;52.586;13.442;2022-09-09T03:41:21;12.60;;;5.63;;
43626;SDS011;29217;52.586;13.442;2022-09-09T03:43:48;8.10;;;5.35;;
43626;SDS011;29217;52.586;13.442;2022-09-09T03:46:17;8.48;;;6.20;;
43626;SDS011;29217;52.586;13.442;2022-09-09T03:48:47;7.85;;;5.75;;
43626;SDS011;29217;52.586;13.442;2022-09-09T03:51:13;11.00;;;6.28;;
43626;SDS011;29217;52.586;13.442;2022-09-09T03:53:40;8.07;;;5.32;;
43626;SDS011;29217;52.586;13.442;2022-09-09T03:56:06;9.35;;;5.65;;
43626;SDS011;29217;52.586;13.442;2022-09-09T03:58:33;8.70;;;6.00;;
43626;SDS011;29217;52.586;13.442;2022-09-09T04:01:00;8.52;;;5.35;;
43626;SDS011;29217;52.586;13.442;2022-09-09T04:03:28;10.15;;;5.65;;
43626;SDS011;29217;52.586;13.442;2022-09-09T04:05:55;7.75;;;5.40;;
43626;SDS011;29217;52.586;13.442;2022-09-09T04:08:22;8.98;;;6.40;;
43626;SDS011;29217;52.586;13.442;2022-09-09T04:10:50;8.50;;;6.15;;
43626;SDS011;29217;52.586;13.442;2022-09-09T04:13:16;9.10;;;5.50;;
43626;SDS011;29217;52.586;13.442;2022-09-09T04:15:52;9.38;;;6.30;;
43626;SDS011;29217;52.586;13.442;2022-09-09T04:18:23;11.30;;;6.07;;
43626;SDS011;29217;52.586;13.442;2022-09-09T04:20:49;7.97;;;5.75;;
43626;SDS011;29217;52.586;13.442;2022-09-09T04:23:16;7.78;;;5.68;;
43626;SDS011;29217;52.586;13.442;2022-09-09T04:25:47;8.32;;;5.95;;
43626;SDS011;29217;52.586;13.442;2022-09-09T04:28:17;8.88;;;5.97;;
43626;SDS011;29217;52.586;13.442;2022-09-09T04:30:45;7.43;;;5.18;;
43626;SDS011;29217;52.586;13.442;2022-09-09T04:33:11;8.15;;;5.53;;
43626;SDS011;29217;52.586;13.442;2022-09-09T04:35:37;9.15;;;5.10;;
43626;SDS011;29217;52.586;13.442;2022-09-09T04:38:03;13.57;;;5.90;;
43626;SDS011;29217;52.586;13.442;2022-09-09T04:40:30;7.68;;;5.30;;
43626;SDS011;29217;52.586;13.442;2022-09-09T04:42:59;7.70;;;5.20;;
43626;SDS011;29217;52.586;13.442;2022-09-09T04:45:25;7.43;;;4.93;;
43626;SDS011;29217;52.586;13.442;2022-09-09T04:47:51;9.20;;;5.70;;
43626;SDS011;29217;52.586;13.442;2022-09-09T04:50:18;12.15;;;5.32;;
43626;SDS011;29217;52.586;13.442;2022-09-09T04:52:44;10.45;;;4.97;;
43626;SDS011;29217;52.586;13.442;2022-09-09T04:55:09;6.97;;;5.07;;
43626;SDS011;29217;52.586;13.442;2022-09-09T04:57:35;9.55;;;6.25;;
43626;SDS011;29217;52.586;13.442;2022-09-09T05:00:01;10.43;;;5.70;;
43626;SDS011;29217;52.586;13.442;2022-09-09T05:02:28;10.10;;;4.93;;
43626;SDS011;29217;52.586;13.442;2022-09-09T05:04:53;7.15;;;5.05;;
43626;SDS011;29217;52.586;13.442;2022-09-09T05:07:20;11.63;;;5.32;;
43626;SDS011;29217;52.586;13.442;2022-09-09T05:09:45;11.07;;;6.05;;
43626;SDS011;29217;52.586;13.442;2022-09-09T05:12:13;12.65;;;6.00;;
43626;SDS011;29217;52.586;13.442;2022-09-09T05:14:38;9.20;;;6.10;;
43626;SDS011;29217;52.586;13.442;2022-09-09T05:17:04;12.05;;;6.22;;
43626;SDS011;29217;52.586;13.442;2022-09-09T05:19:29;7.68;;;5.57;;
43626;SDS011;29217;52.586;13.442;2022-09-09T05:21:56;11.73;;;5.93;;
43626;SDS011;29217;52.586;13.442;2022-09-09T05:24:21;9.55;;;5.82;;
43626;SDS011;29217;52.586;13.442;2022-09-09T05:26:48;12.43;;;6.82;;
43626;SDS011;29217;52.586;13.442;2022-09-09T05:29:14;15.52;;;6.57;;
43626;SDS011;29217;52.586;13.442;2022-09-09T05:31:39;9.25;;;6.65;;
43626;SDS011;29217;52.586;13.442;2022-09-09T05:34:05;11.95;;;6.18;;
43626;SDS011;29217;52.586;13.442;2022-09-09T05:36:31;11.30;;;6.15;;
43626;SDS011;29217;52.586;13.442;2022-09-09T05:38:57;11.90;;;6.50;;
43626;SDS011;29217;52.586;13.442;2022-09-09T05:41:22;11.02;;;7.13;;
43626;SDS011;29217;52.586;13.442;2022-09-09T05:43:48;8.85;;;6.25;;
43626;SDS011;29217;52.586;13.442;2022-09-09T05:46:14;12.40;;;6.55;;
43626;SDS011;29217;52.586;13.442;2022-09-09T05:48:42;9.63;;;6.63;;
43626;SDS011;29217;52.586;13.442;2022-09-09T05:51:11;13.27;;;7.57;;
43626;SDS011;29217;52.586;13.442;2022-09-09T05:53:40;13.45;;;8.00;;
43626;SDS011;29217;52.586;13.442;2022-09-09T05:56:07;10.27;;;7.53;;
43626;SDS011;29217;52.586;13.442;2022-09-09T05:58:38;10.95;;;7.30;;
43626;SDS011;29217;52.586;13.442;2022-09-09T06:01:05;13.18;;;6.50;;
43626;SDS011;29217;52.586;13.442;2022-09-09T06:03:39;9.10;;;6.22;;
43626;SDS011;29217;52.586;13.442;2022-09-09T06:06:06;13.63;;;6.88;;
43626;SDS011;29217;52.586;13.442;2022-09-09T06:08:37;13.73;;;7.22;;
43626;SDS011;29217;52.586;13.442;2022-09-09T06:11:05;9.27;;;7.05;;
43626;SDS011;29217;52.586;13.442;2022-09-09T06:13:36;13.13;;;7.15;;
43626;SDS011;29217;52.586;13.442;2022-09-09T06:16:05;12.32;;;7.25;;
43626;SDS011;29217;52.586;13.442;2022-09-09T06:18:36;13.68;;;7.38;;
43626;SDS011;29217;52.586;13.442;2022-09-09T06:21:03;12.10;;;6.82;;
43626;SDS011;29217;52.586;13.442;2022-09-09T06:23:29;12.00;;;6.60;;
43626;SDS011;29217;52.586;13.442;2022-09-09T06:26:03;15.45;;;7.38;;
43626;SDS011;29217;52.586;13.442;2022-09-09T06:28:30;12.60;;;6.80;;
43626;SDS011;29217;52.586;13.442;2022-09-09T06:30:57;11.27;;;6.20;;
43626;SDS011;29217;52.586;13.442;2022-09-09T06:33:23;12.15;;;5.95;;
43626;SDS011;29217;52.586;13.442;2022-09-09T06:35:52;14.32;;;5.70;;
43626;SDS011;29217;52.586;13.442;2022-09-09T06:38:18;10.85;;;5.60;;
43626;SDS011;29217;52.586;13.442;2022-09-09T06:40:50;8.25;;;4.75;;
43626;SDS011;29217;52.586;13.442;2022-09-09T06:43:19;8.60;;;5.60;;
43626;SDS011;29217;52.586;13.442;2022-09-09T06:45:52;7.03;;;5.20;;
43626;SDS011;29217;52.586;13.442;2022-09-09T06:48:19;12.00;;;5.32;;
43626;SDS011;29217;52.586;13.442;2022-09-09T06:50:44;12.07;;;5.60;;
43626;SDS011;29217;52.586;13.442;2022-09-09T06:53:10;9.43;;;5.43;;
43626;SDS011;29217;52.586;13.442;2022-09-09T06:55:35;12.77;;;5.38;;
43626;SDS011;29217;52.586;13.442;2022-09-09T06:58:01;9.93;;;5.50;;
43626;SDS011;29217;52.586;13.442;2022-09-09T07:00:27;11.45;;;4.90;;
43626;SDS011;29217;52.586;13.442;2022-09-09T07:02:54;12.23;;;5.40;;
43626;SDS011;29217;52.586;13.442;2022-09-09T07:05:20;8.52;;;5.35;;
43626;SDS011;29217;52.586;13.442;2022-09-09T07:07:46;8.00;;;4.93;;
43626;SDS011;29217;52.586;13.442;2022-09-09T07:10:11;9.23;;;5.43;;
43626;SDS011;29217;52.586;13.442;2022-09-09T07:12:37;8.77;;;5.30;;
43626;SDS011;29217;52.586;13.442;2022-09-09T07:15:02;11.95;;;4.30;;
43626;SDS011;29217;52.586;13.442;2022-09-09T07:17:28;5.90;;;3.92;;
43626;SDS011;29217;52.586;13.442;2022-09-09T07:19:54;9.07;;;3.88;;
43626;SDS011;29217;52.586;13.442;2022-09-09T07:22:19;7.68;;;3.88;;
43626;SDS011;29217;52.586;13.442;2022-09-09T07:24:45;9.55;;;3.38;;
43626;SDS011;29217;52.586;13.442;2022-09-09T07:27:10;6.88;;;3.38;;
43626;SDS011;29217;52.586;13.442;2022-09-09T07:29:36;6.28;;;3.30;;
43626;SDS011;29217;52.586;13.442;2022-09-09T07:32:02;8.43;;;3.60;;
43626;SDS011;29217;52.586;13.442;2022-09-09T07:34:29;14.35;;;4.35;;
43626;SDS011;29217;52.586;13.442;2022-09-09T07:36:54;6.72;;;3.03;;
43626;SDS011;29217;52.586;13.442;2022-09-09T07:39:22;8.65;;;3.20;;
43626;SDS011;29217;52.586;13.442;2022-09-09T07:41:48;6.18;;;2.80;;
43626;SDS011;29217;52.586;13.442;2022-09-09T07:44:15;6.53;;;2.72;;
43626;SDS011;29217;52.586;13.442;2022-09-09T07:46:49;7.30;;;3.10;;
43626;SDS011;29217;52.586;13.442;2022-09-09T07:49:15;6.65;;;3.30;;
43626;SDS011;29217;52.586;13.442;2022-09-09T07:51:42;9.43;;;3.20;;
43626;SDS011;29217;52.586;13.442;2022-09-09T07:54:11;5.82;;;2.78;;
43626;SDS011;29217;52.586;13.442;2022-09-09T07:56:39;4.28;;;2.58;;
43626;SDS011;29217;52.586;13.442;2022-09-09T07:59:05;6.13;;;2.60;;
43626;SDS011;29217;52.586;13.442;2022-09-09T08:01:38;5.35;;;2.45;;
43626;SDS011;29217;52.586;13.442;2022-09-09T08:04:10;5.25;;;2.13;;
43626;SDS011;29217;52.586;13.442;2022-09-09T08:06:40;6.63;;;1.85;;
43626;SDS011;29217;52.586;13.442;2022-09-09T08:09:08;11.13;;;2.30;;
43626;SDS011;29217;52.586;13.442;2022-09-09T08:11:34;7.13;;;2.17;;
43626;SDS011;29217;52.586;13.442;2022-09-09T08:14:00;7.10;;;2.03;;
43626;SDS011;29217;52.586;13.442;2022-09-09T08:16:28;6.68;;;1.98;;
43626;SDS011;29217;52.586;13.442;2022-09-09T08:18:56;5.07;;;1.88;;
43626;SDS011;29217;52.586;13.442;2022-09-09T08:21:23;4.28;;;1.92;;
43626;SDS011;29217;52.586;13.442;2022-09-09T08:23:53;9.68;;;2.25;;
43626;SDS011;29217;52.586;13.442;2022-09-09T08:26:20;4.97;;;1.85;;
43626;SDS011;29217;52.586;13.442;2022-09-09T08:28:48;5.65;;;2.05;;
43626;SDS011;29217;52.586;13.442;2022-09-09T08:31:24;3.72;;;1.77;;
43626;SDS011;29217;52.586;13.442;2022-09-09T08:33:53;6.53;;;2.00;;
43626;SDS011;29217;52.586;13.442;2022-09-09T08:36:20;5.40;;;1.80;;
43626;SDS011;29217;52.586;13.442;2022-09-09T08:38:47;4.95;;;1.52;;
43626;SDS011;29217;52.586;13.442;2022-09-09T08:44:06;7.32;;;2.00;;
43626;SDS011;29217;52.586;13.442;2022-09-09T08:46:41;4.35;;;1.55;;
43626;SDS011;29217;52.586;13.442;2022-09-09T08:49:36;6.40;;;1.50;;
43626;SDS011;29217;52.586;13.442;2022-09-09T08:52:24;7.00;;;1.60;;
43626;SDS011;29217;52.586;13.442;2022-09-09T08:54:55;6.50;;;1.77;;
43626;SDS011;29217;52.586;13.442;2022-09-09T08:57:25;8.35;;;1.80;;
43626;SDS011;29217;52.586;13.442;2022-09-09T08:59:52;4.10;;;1.70;;
43626;SDS011;29217;52.586;13.442;2022-09-09T09:07:59;3.60;;;1.80;;
43626;SDS011;29217;52.586;13.442;2022-09-09T09:13:13;8.10;;;1.98;;
43626;SDS011;29217;52.586;13.442;2022-09-09T09:15:55;4.15;;;2.15;;
43626;SDS011;29217;52.586;13.442;2022-09-09T09:18:26;5.07;;;2.00;;
43626;SDS011;29217;52.586;13.442;2022-09-09T09:23:33;7.32;;;2.15;;
43626;SDS011;29217;52.586;13.442;2022-09-09T09:26:35;4.82;;;1.80;;
43626;SDS011;29217;52.586;13.442;2022-09-09T09:29:01;5.55;;;1.77;;
43626;SDS011;29217;52.586;13.442;2022-09-09T09:31:38;7.47;;;2.13;;
43626;SDS011;29217;52.586;13.442;2022-09-09T09:34:03;5.22;;;2.10;;
43626;SDS011;29217;52.586;13.442;2022-09-09T09:36:38;3.70;;;1.80;;
43626;SDS011;29217;52.586;13.442;2022-09-09T09:39:07;6.32;;;1.98;;
43626;SDS011;29217;52.586;13.442;2022-09-09T09:41:38;3.28;;;1.60;;
43626;SDS011;29217;52.586;13.442;2022-09-09T09:44:18;4.38;;;1.80;;
43626;SDS011;29217;52.586;13.442;2022-09-09T09:46:48;5.25;;;1.65;;
43626;SDS011;29217;52.586;13.442;2022-09-09T09:49:14;4.57;;;2.00;;
43626;SDS011;29217;52.586;13.442;2022-09-09T09:51:39;8.57;;;1.83;;
43626;SDS011;29217;52.586;13.442;2022-09-09T09:56:48;7.18;;;1.52;;
43626;SDS011;29217;52.586;13.442;2022-09-09T10:02:24;5.80;;;1.65;;
43626;SDS011;29217;52.586;13.442;2022-09-09T10:05:01;3.28;;;1.38;;
43626;SDS011;29217;52.586;13.442;2022-09-09T10:07:27;4.45;;;1.50;;
43626;SDS011;29217;52.586;13.442;2022-09-09T10:09:55;5.07;;;1.40;;
43626;SDS011;29217;52.586;13.442;2022-09-09T10:12:30;3.55;;;1.20;;
43626;SDS011;29217;52.586;13.442;2022-09-09T10:15:29;7.07;;;1.40;;
43626;SDS011;29217;52.586;13.442;2022-09-09T10:20:45;4.38;;;1.40;;
43626;SDS011;29217;52.586;13.442;2022-09-09T10:29:09;10.25;;;1.55;;
43626;SDS011;29217;52.586;13.442;2022-09-09T10:32:10;5.25;;;1.40;;
43626;SDS011;29217;52.586;13.442;2022-09-09T10:35:12;5.40;;;1.70;;
43626;SDS011;29217;52.586;13.442;2022-09-09T10:40:43;4.38;;;1.10;;
43626;SDS011;29217;52.586;13.442;2022-09-09T10:46:23;6.70;;;1.25;;
43626;SDS011;29217;52.586;13.442;2022-09-09T10:51:48;6.35;;;1.60;;
43626;SDS011;29217;52.586;13.442;2022-09-09T10:56:56;4.05;;;1.55;;
43626;SDS011;29217;52.586;13.442;2022-09-09T10:59:35;10.50;;;1.42;;
43626;SDS011;29217;52.586;13.442;2022-09-09T11:04:35;4.93;;;1.40;;
43626;SDS011;29217;52.586;13.442;2022-09-09T11:07:10;2.05;;;1.05;;
43626;SDS011;29217;52.586;13.442;2022-09-09T11:09:43;4.00;;;1.38;;
43626;SDS011;29217;52.586;13.442;2022-09-09T11:12:15;3.38;;;1.52;;
43626;SDS011;29217;52.586;13.442;2022-09-09T11:14:53;6.47;;;1.67;;
43626;SDS011;29217;52.586;13.442;2022-09-09T11:17:26;5.57;;;1.13;;
43626;SDS011;29217;52.586;13.442;2022-09-09T11:20:14;4.72;;;1.13;;
43626;SDS011;29217;52.586;13.442;2022-09-09T11:28:16;6.05;;;1.20;;
43626;SDS011;29217;52.586;13.442;2022-09-09T11:33:29;11.10;;;1.45;;
43626;SDS011;29217;52.586;13.442;2022-09-09T11:39:14;3.92;;;1.20;;
43626;SDS011;29217;52.586;13.442;2022-09-09T11:44:39;1.40;;;0.80;;
43626;SDS011;29217;52.586;13.442;2022-09-09T11:50:40;9.77;;;1.67;;
43626;SDS011;29217;52.586;13.442;2022-09-09T11:55:32;1.85;;;0.82;;
43626;SDS011;29217;52.586;13.442;2022-09-09T12:06:11;3.72;;;1.33;;
43626;SDS011;29217;52.586;13.442;2022-09-09T12:08:42;2.38;;;1.15;;
43626;SDS011;29217;52.586;13.442;2022-09-09T12:11:11;6.32;;;0.90;;
43626;SDS011;29217;52.586;13.442;2022-09-09T12:13:36;3.50;;;0.93;;
43626;SDS011;29217;52.586;13.442;2022-09-09T12:16:02;4.63;;;1.00;;
43626;SDS011;29217;52.586;13.442;2022-09-09T12:18:34;3.42;;;1.08;;
43626;SDS011;29217;52.586;13.442;2022-09-09T12:24:13;3.47;;;1.00;;
43626;SDS011;29217;52.586;13.442;2022-09-09T12:26:53;2.22;;;0.80;;
43626;SDS011;29217;52.586;13.442;2022-09-09T12:32:22;1.85;;;0.80;;
43626;SDS011;29217;52.586;13.442;2022-09-09T12:34:56;5.80;;;0.82;;
43626;SDS011;29217;52.586;13.442;2022-09-09T12:37:37;2.88;;;0.70;;
43626;SDS011;29217;52.586;13.442;2022-09-09T12:40:23;7.03;;;0.90;;
43626;SDS011;29217;52.586;13.442;2022-09-09T12:42:53;3.85;;;1.08;;
43626;SDS011;29217;52.586;13.442;2022-09-09T12:47:51;2.50;;;0.80;;
43626;SDS011;29217;52.586;13.442;2022-09-09T12:50:24;2.53;;;0.82;;
43626;SDS011;29217;52.586;13.442;2022-09-09T12:52:53;3.70;;;0.60;;
43626;SDS011;29217;52.586;13.442;2022-09-09T12:55:23;6.43;;;1.02;;
43626;SDS011;29217;52.586;13.442;2022-09-09T12:57:52;3.10;;;0.63;;
43626;SDS011;29217;52.586;13.442;2022-09-09T13:00:19;3.95;;;0.90;;
43626;SDS011;29217;52.586;13.442;2022-09-09T13:02:49;1.67;;;0.70;;
43626;SDS011;29217;52.586;13.442;2022-09-09T13:05:18;2.80;;;0.77;;
43626;SDS011;29217;52.586;13.442;2022-09-09T13:08:00;7.00;;;1.27;;
43626;SDS011;29217;52.586;13.442;2022-09-09T13:10:27;4.07;;;0.80;;
43626;SDS011;29217;52.586;13.442;2022-09-09T13:12:57;2.95;;;0.90;;
43626;SDS011;29217;52.586;13.442;2022-09-09T13:15:23;2.97;;;1.05;;
43626;SDS011;29217;52.586;13.442;2022-09-09T13:17:58;5.07;;;0.88;;
43626;SDS011;29217;52.586;13.442;2022-09-09T13:20:29;1.65;;;0.98;;
43626;SDS011;29217;52.586;13.442;2022-09-09T13:22:55;6.15;;;1.05;;
43626;SDS011;29217;52.586;13.442;2022-09-09T13:25:26;2.25;;;0.90;;
43626;SDS011;29217;52.586;13.442;2022-09-09T13:28:00;4.05;;;0.90;;
43626;SDS011;29217;52.586;13.442;2022-09-09T13:33:05;5.70;;;0.90;;
43626;SDS011;29217;52.586;13.442;2022-09-09T13:38:14;8.75;;;1.35;;
43626;SDS011;29217;52.586;13.442;2022-09-09T13:40:40;2.38;;;0.85;;
43626;SDS011;29217;52.586;13.442;2022-09-09T13:43:20;4.45;;;0.80;;
43626;SDS011;29217;52.586;13.442;2022-09-09T13:46:01;3.75;;;0.90;;
43626;SDS011;29217;52.586;13.442;2022-09-09T13:48:28;6.05;;;1.00;;
43626;SDS011;29217;52.586;13.442;2022-09-09T13:51:04;4.22;;;0.77;;
43626;SDS011;29217;52.586;13.442;2022-09-09T13:53:30;2.35;;;0.88;;
43626;SDS011;29217;52.586;13.442;2022-09-09T13:55:56;3.25;;;0.90;;
43626;SDS011;29217;52.586;13.442;2022-09-09T13:58:23;2.80;;;0.85;;
43626;SDS011;29217;52.586;13.442;2022-09-09T14:00:50;4.20;;;0.80;;
43626;SDS011;29217;52.586;13.442;2022-09-09T14:03:19;2.00;;;0.80;;
43626;SDS011;29217;52.586;13.442;2022-09-09T14:05:45;2.33;;;0.70;;
43626;SDS011;29217;52.586;13.442;2022-09-09T14:08:21;3.38;;;0.80;;
43626;SDS011;29217;52.586;13.442;2022-09-09T14:10:49;4.88;;;0.82;;
43626;SDS011;29217;52.586;13.442;2022-09-09T14:13:15;2.65;;;0.80;;
43626;SDS011;29217;52.586;13.442;2022-09-09T14:15:41;1.73;;;0.70;;
43626;SDS011;29217;52.586;13.442;2022-09-09T14:18:09;3.05;;;0.90;;
43626;SDS011;29217;52.586;13.442;2022-09-09T14:20:36;2.17;;;0.80;;
43626;SDS011;29217;52.586;13.442;2022-09-09T14:23:02;4.07;;;0.75;;
43626;SDS011;29217;52.586;13.442;2022-09-09T14:25:27;2.60;;;0.73;;
43626;SDS011;29217;52.586;13.442;2022-09-09T14:27:53;1.80;;;0.98;;
43626;SDS011;29217;52.586;13.442;2022-09-09T14:30:19;4.18;;;0.88;;
43626;SDS011;29217;52.586;13.442;2022-09-09T14:32:44;6.38;;;1.05;;
43626;SDS011;29217;52.586;13.442;2022-09-09T14:35:10;2.70;;;0.80;;
43626;SDS011;29217;52.586;13.442;2022-09-09T14:37:36;2.00;;;1.10;;
43626;SDS011;29217;52.586;13.442;2022-09-09T14:40:02;3.47;;;1.63;;
43626;SDS011;29217;52.586;13.442;2022-09-09T14:42:27;2.03;;;0.70;;
43626;SDS011;29217;52.586;13.442;2022-09-09T14:44:55;3.28;;;0.95;;
43626;SDS011;29217;52.586;13.442;2022-09-09T14:47:20;1.60;;;0.70;;
43626;SDS011;29217;52.586;13.442;2022-09-09T14:49:46;6.85;;;0.90;;
43626;SDS011;29217;52.586;13.442;2022-09-09T14:52:14;3.67;;;0.70;;
43626;SDS011;29217;52.586;13.442;2022-09-09T14:54:39;2.88;;;1.10;;
43626;SDS011;29217;52.586;13.442;2022-09-09T14:57:05;3.30;;;1.00;;
43626;SDS011;29217;52.586;13.442;2022-09-09T14:59:30;2.47;;;0.88;;
43626;SDS011;29217;52.586;13.442;2022-09-09T15:01:56;3.10;;;0.85;;
43626;SDS011;29217;52.586;13.442;2022-09-09T15:04:21;8.02;;;0.90;;
43626;SDS011;29217;52.586;13.442;2022-09-09T15:06:47;4.03;;;0.90;;
43626;SDS011;29217;52.586;13.442;2022-09-09T15:09:15;4.47;;;0.90;;
43626;SDS011;29217;52.586;13.442;2022-09-09T15:11:40;15.93;;;5.00;;
43626;SDS011;29217;52.586;13.442;2022-09-09T15:14:06;5.90;;;4.07;;
43626;SDS011;29217;52.586;13.442;2022-09-09T15:16:33;5.95;;;2.10;;
43626;SDS011;29217;52.586;13.442;2022-09-09T15:18:59;8.02;;;3.92;;
43626;SDS011;29217;52.586;13.442;2022-09-09T15:21:27;6.63;;;1.70;;
43626;SDS011;29217;52.586;13.442;2022-09-09T15:23:54;4.90;;;1.35;;
43626;SDS011;29217;52.586;13.442;2022-09-09T15:26:20;2.70;;;0.90;;
43626;SDS011;29217;52.586;13.442;2022-09-09T15:28:47;9.23;;;1.10;;
43626;SDS011;29217;52.586;13.442;2022-09-09T15:33:39;2.33;;;1.00;;
43626;SDS011;29217;52.586;13.442;2022-09-09T15:38:41;2.17;;;0.88;;
43626;SDS011;29217;52.586;13.442;2022-09-09T15:41:08;1.25;;;0.73;;
43626;SDS011;29217;52.586;13.442;2022-09-09T15:43:34;2.03;;;0.80;;
43626;SDS011;29217;52.586;13.442;2022-09-09T15:46:02;2.15;;;0.88;;
43626;SDS011;29217;52.586;13.442;2022-09-09T15:48:49;3.75;;;0.90;;
43626;SDS011;29217;52.586;13.442;2022-09-09T15:51:15;3.38;;;1.30;;
43626;SDS011;29217;52.586;13.442;2022-09-09T15:53:41;1.67;;;0.93;;
43626;SDS011;29217;52.586;13.442;2022-09-09T15:56:07;5.43;;;1.08;;
43626;SDS011;29217;52.586;13.442;2022-09-09T15:58:33;2.65;;;0.95;;
43626;SDS011;29217;52.586;13.442;2022-09-09T16:01:03;1.80;;;0.85;;
43626;SDS011;29217;52.586;13.442;2022-09-09T16:03:37;5.07;;;1.00;;
43626;SDS011;29217;52.586;13.442;2022-09-09T16:06:04;1.60;;;0.70;;
43626;SDS011;29217;52.586;13.442;2022-09-09T16:08:37;3.13;;;1.00;;
43626;SDS011;29217;52.586;13.442;2022-09-09T16:11:05;1.85;;;0.90;;
43626;SDS011;29217;52.586;13.442;2022-09-09T16:13:34;4.47;;;1.05;;
43626;SDS011;29217;52.586;13.442;2022-09-09T16:16:04;3.17;;;1.10;;
43626;SDS011;29217;52.586;13.442;2022-09-09T16:18:37;4.43;;;1.10;;
43626;SDS011;29217;52.586;13.442;2022-09-09T16:21:08;4.10;;;0.98;;
43626;SDS011;29217;52.586;13.442;2022-09-09T16:23:43;2.78;;;1.50;;
43626;SDS011;29217;52.586;13.442;2022-09-09T16:26:13;3.60;;;1.00;;
43626;SDS011;29217;52.586;13.442;2022-09-09T16:28:40;4.75;;;1.40;;
43626;SDS011;29217;52.586;13.442;2022-09-09T16:31:06;2.03;;;1.00;;
43626;SDS011;29217;52.586;13.442;2022-09-09T16:33:32;5.15;;;1.10;;
43626;SDS011;29217;52.586;13.442;2022-09-09T16:36:04;5.15;;;1.30;;
43626;SDS011;29217;52.586;13.442;2022-09-09T16:38:34;2.45;;;1.10;;
43626;SDS011;29217;52.586;13.442;2022-09-09T16:41:01;4.43;;;1.20;;
43626;SDS011;29217;52.586;13.442;2022-09-09T16:43:30;3.97;;;1.58;;